sensor_id;sensor_type;location;lat;lon;timestamp;pressure;altitude;pressure_sealevel;temperature
33877;BMP180;20166;51.738;7.158;2024-03-08T00:00:18;101328.00;;;4.10
33877;BMP180;20166;51.738;7.158;2024-03-08T00:03:05;101314.00;;;4.10
33877;BMP180;20166;51.738;7.158;2024-03-08T00:05:51;101333.00;;;4.20
33877;BMP180;20166;51.738;7.158;2024-03-08T00:08:38;101325.00;;;4.20
33877;BMP180;20166;51.738;7.158;2024-03-08T00:11:25;101332.00;;;4.00
33877;BMP180;20166;51.738;7.158;2024-03-08T00:14:12;101333.00;;;4.10
33877;BMP180;20166;51.738;7.158;2024-03-08T00:16:58;101329.00;;;4.00
33877;BMP180;20166;51.738;7.158;2024-03-08T00:19:45;101331.00;;;4.00
33877;BMP180;20166;51.738;7.158;2024-03-08T00:22:31;101324.00;;;4.00
33877;BMP180;20166;51.738;7.158;2024-03-08T00:25:18;101326.00;;;3.90
33877;BMP180;20166;51.738;7.158;2024-03-08T00:28:06;101319.00;;;3.90
33877;BMP180;20166;51.738;7.158;2024-03-08T00:30:53;101318.00;;;3.90
33877;BMP180;20166;51.738;7.158;2024-03-08T00:33:39;101313.00;;;3.80
33877;BMP180;20166;51.738;7.158;2024-03-08T00:36:26;101314.00;;;3.80
33877;BMP180;20166;51.738;7.158;2024-03-08T00:39:15;101322.00;;;3.70
33877;BMP180;20166;51.738;7.158;2024-03-08T00:42:01;101312.00;;;3.80
33877;BMP180;20166;51.738;7.158;2024-03-08T00:44:49;101309.00;;;3.70
33877;BMP180;20166;51.738;7.158;2024-03-08T00:47:37;101309.00;;;3.70
33877;BMP180;20166;51.738;7.158;2024-03-08T00:50:24;101306.00;;;3.80
33877;BMP180;20166;51.738;7.158;2024-03-08T00:53:10;101295.00;;;3.70
33877;BMP180;20166;51.738;7.158;2024-03-08T00:55:57;101299.00;;;3.80
33877;BMP180;20166;51.738;7.158;2024-03-08T00:58:43;101294.00;;;3.70
33877;BMP180;20166;51.738;7.158;2024-03-08T01:01:31;101290.00;;;3.70
33877;BMP180;20166;51.738;7.158;2024-03-08T01:04:17;101290.00;;;3.80
33877;BMP180;20166;51.738;7.158;2024-03-08T01:07:05;101287.00;;;3.70
33877;BMP180;20166;51.738;7.158;2024-03-08T01:09:52;101286.00;;;3.70
33877;BMP180;20166;51.738;7.158;2024-03-08T01:12:39;101290.00;;;3.70
33877;BMP180;20166;51.738;7.158;2024-03-08T01:15:25;101289.00;;;3.60
33877;BMP180;20166;51.738;7.158;2024-03-08T01:18:13;101280.00;;;3.60
33877;BMP180;20166;51.738;7.158;2024-03-08T01:21:00;101279.00;;;3.50
33877;BMP180;20166;51.738;7.158;2024-03-08T01:23:46;101268.00;;;3.60
33877;BMP180;20166;51.738;7.158;2024-03-08T01:26:32;101272.00;;;3.50
33877;BMP180;20166;51.738;7.158;2024-03-08T01:29:19;101271.00;;;3.50
33877;BMP180;20166;51.738;7.158;2024-03-08T01:32:06;101262.00;;;3.50
33877;BMP180;20166;51.738;7.158;2024-03-08T01:34:54;101248.00;;;3.50
33877;BMP180;20166;51.738;7.158;2024-03-08T01:37:41;101251.00;;;3.30
33877;BMP180;20166;51.738;7.158;2024-03-08T01:40:27;101250.00;;;3.30
33877;BMP180;20166;51.738;7.158;2024-03-08T01:43:18;101244.00;;;3.30
33877;BMP180;20166;51.738;7.158;2024-03-08T01:46:07;101242.00;;;3.20
33877;BMP180;20166;51.738;7.158;2024-03-08T01:48:54;101242.00;;;3.20
33877;BMP180;20166;51.738;7.158;2024-03-08T01:51:42;101232.00;;;3.20
33877;BMP180;20166;51.738;7.158;2024-03-08T01:54:29;101234.00;;;3.30
33877;BMP180;20166;51.738;7.158;2024-03-08T01:57:16;101233.00;;;3.20
33877;BMP180;20166;51.738;7.158;2024-03-08T02:00:03;101235.00;;;3.20
33877;BMP180;20166;51.738;7.158;2024-03-08T02:02:51;101227.00;;;3.20
33877;BMP180;20166;51.738;7.158;2024-03-08T02:05:38;101223.00;;;3.10
33877;BMP180;20166;51.738;7.158;2024-03-08T02:08:28;101224.00;;;3.10
33877;BMP180;20166;51.738;7.158;2024-03-08T02:11:14;101220.00;;;3.00
33877;BMP180;20166;51.738;7.158;2024-03-08T02:14:01;101225.00;;;2.90
33877;BMP180;20166;51.738;7.158;2024-03-08T02:16:47;101214.00;;;2.90
33877;BMP180;20166;51.738;7.158;2024-03-08T02:19:34;101208.00;;;3.00
33877;BMP180;20166;51.738;7.158;2024-03-08T02:22:22;101210.00;;;3.00
33877;BMP180;20166;51.738;7.158;2024-03-08T02:25:09;101214.00;;;2.90
33877;BMP180;20166;51.738;7.158;2024-03-08T02:27:55;101205.00;;;3.00
33877;BMP180;20166;51.738;7.158;2024-03-08T02:30:42;101200.00;;;3.10
33877;BMP180;20166;51.738;7.158;2024-03-08T02:33:28;101199.00;;;3.10
33877;BMP180;20166;51.738;7.158;2024-03-08T02:36:15;101196.00;;;3.20
33877;BMP180;20166;51.738;7.158;2024-03-08T02:39:03;101196.00;;;3.20
33877;BMP180;20166;51.738;7.158;2024-03-08T02:41:50;101194.00;;;3.20
33877;BMP180;20166;51.738;7.158;2024-03-08T02:44:37;101194.00;;;3.20
33877;BMP180;20166;51.738;7.158;2024-03-08T02:47:23;101186.00;;;3.00
33877;BMP180;20166;51.738;7.158;2024-03-08T02:50:12;101187.00;;;3.00
33877;BMP180;20166;51.738;7.158;2024-03-08T02:53:01;101180.00;;;3.00
33877;BMP180;20166;51.738;7.158;2024-03-08T02:55:49;101181.00;;;2.90
33877;BMP180;20166;51.738;7.158;2024-03-08T02:58:35;101187.00;;;2.80
33877;BMP180;20166;51.738;7.158;2024-03-08T03:01:22;101183.00;;;2.90
33877;BMP180;20166;51.738;7.158;2024-03-08T03:04:09;101171.00;;;2.80
33877;BMP180;20166;51.738;7.158;2024-03-08T03:06:56;101175.00;;;2.80
33877;BMP180;20166;51.738;7.158;2024-03-08T03:09:43;101167.00;;;2.90
33877;BMP180;20166;51.738;7.158;2024-03-08T03:12:31;101134.00;;;2.90
33877;BMP180;20166;51.738;7.158;2024-03-08T03:15:19;101157.00;;;2.80
33877;BMP180;20166;51.738;7.158;2024-03-08T03:18:06;101160.00;;;2.80
33877;BMP180;20166;51.738;7.158;2024-03-08T03:20:53;101162.00;;;2.80
33877;BMP180;20166;51.738;7.158;2024-03-08T03:23:40;101153.00;;;2.80
33877;BMP180;20166;51.738;7.158;2024-03-08T03:26:27;101153.00;;;2.70
33877;BMP180;20166;51.738;7.158;2024-03-08T03:29:15;101164.00;;;2.70
33877;BMP180;20166;51.738;7.158;2024-03-08T03:32:02;101150.00;;;2.60
33877;BMP180;20166;51.738;7.158;2024-03-08T03:34:49;101151.00;;;2.60
33877;BMP180;20166;51.738;7.158;2024-03-08T03:37:38;101144.00;;;2.60
33877;BMP180;20166;51.738;7.158;2024-03-08T03:40:28;101151.00;;;2.60
33877;BMP180;20166;51.738;7.158;2024-03-08T03:43:14;101143.00;;;2.60
33877;BMP180;20166;51.738;7.158;2024-03-08T03:46:02;101141.00;;;2.60
33877;BMP180;20166;51.738;7.158;2024-03-08T03:48:51;101146.00;;;2.50
33877;BMP180;20166;51.738;7.158;2024-03-08T03:51:38;101139.00;;;2.50
33877;BMP180;20166;51.738;7.158;2024-03-08T03:54:24;101133.00;;;2.50
33877;BMP180;20166;51.738;7.158;2024-03-08T03:57:11;101139.00;;;2.50
33877;BMP180;20166;51.738;7.158;2024-03-08T03:59:58;101129.00;;;2.50
33877;BMP180;20166;51.738;7.158;2024-03-08T04:02:46;101127.00;;;2.50
33877;BMP180;20166;51.738;7.158;2024-03-08T04:05:32;101125.00;;;2.60
33877;BMP180;20166;51.738;7.158;2024-03-08T04:08:19;101130.00;;;2.60
33877;BMP180;20166;51.738;7.158;2024-03-08T04:11:06;101122.00;;;2.60
33877;BMP180;20166;51.738;7.158;2024-03-08T04:13:53;101120.00;;;2.50
33877;BMP180;20166;51.738;7.158;2024-03-08T04:16:40;101125.00;;;2.50
33877;BMP180;20166;51.738;7.158;2024-03-08T04:19:27;101125.00;;;2.50
33877;BMP180;20166;51.738;7.158;2024-03-08T04:22:14;101124.00;;;2.50
33877;BMP180;20166;51.738;7.158;2024-03-08T04:25:02;101120.00;;;2.60
33877;BMP180;20166;51.738;7.158;2024-03-08T04:27:49;101110.00;;;2.60
33877;BMP180;20166;51.738;7.158;2024-03-08T04:30:37;101114.00;;;2.50
33877;BMP180;20166;51.738;7.158;2024-03-08T04:33:24;101117.00;;;2.60
33877;BMP180;20166;51.738;7.158;2024-03-08T04:36:12;101103.00;;;2.50
33877;BMP180;20166;51.738;7.158;2024-03-08T04:38:59;101105.00;;;2.60
33877;BMP180;20166;51.738;7.158;2024-03-08T04:41:46;101111.00;;;2.60
33877;BMP180;20166;51.738;7.158;2024-03-08T04:44:32;101103.00;;;2.50
33877;BMP180;20166;51.738;7.158;2024-03-08T04:47:19;101106.00;;;2.50
33877;BMP180;20166;51.738;7.158;2024-03-08T04:50:07;101094.00;;;2.40
33877;BMP180;20166;51.738;7.158;2024-03-08T04:52:55;101104.00;;;2.40
33877;BMP180;20166;51.738;7.158;2024-03-08T04:55:41;101106.00;;;2.50
33877;BMP180;20166;51.738;7.158;2024-03-08T04:58:28;101093.00;;;2.50
33877;BMP180;20166;51.738;7.158;2024-03-08T05:01:14;101086.00;;;2.50
33877;BMP180;20166;51.738;7.158;2024-03-08T05:04:01;101093.00;;;2.60
33877;BMP180;20166;51.738;7.158;2024-03-08T05:06:51;101080.00;;;2.50
33877;BMP180;20166;51.738;7.158;2024-03-08T05:09:40;101094.00;;;2.50
33877;BMP180;20166;51.738;7.158;2024-03-08T05:12:27;101078.00;;;2.60
33877;BMP180;20166;51.738;7.158;2024-03-08T05:15:13;101087.00;;;2.50
33877;BMP180;20166;51.738;7.158;2024-03-08T05:18:00;101077.00;;;2.60
33877;BMP180;20166;51.738;7.158;2024-03-08T05:20:47;101079.00;;;2.50
33877;BMP180;20166;51.738;7.158;2024-03-08T05:23:33;101076.00;;;2.50
33877;BMP180;20166;51.738;7.158;2024-03-08T05:26:21;101075.00;;;2.40
33877;BMP180;20166;51.738;7.158;2024-03-08T05:29:08;101075.00;;;2.40
33877;BMP180;20166;51.738;7.158;2024-03-08T05:31:54;101064.00;;;2.40
33877;BMP180;20166;51.738;7.158;2024-03-08T05:34:42;101078.00;;;2.40
33877;BMP180;20166;51.738;7.158;2024-03-08T05:37:29;101076.00;;;2.30
33877;BMP180;20166;51.738;7.158;2024-03-08T05:40:16;101076.00;;;2.30
33877;BMP180;20166;51.738;7.158;2024-03-08T05:43:07;101078.00;;;2.40
33877;BMP180;20166;51.738;7.158;2024-03-08T05:45:54;101073.00;;;2.30
33877;BMP180;20166;51.738;7.158;2024-03-08T05:48:41;101070.00;;;2.40
33877;BMP180;20166;51.738;7.158;2024-03-08T05:51:27;101067.00;;;2.40
33877;BMP180;20166;51.738;7.158;2024-03-08T05:54:14;101070.00;;;2.30
33877;BMP180;20166;51.738;7.158;2024-03-08T05:57:04;101056.00;;;2.40
33877;BMP180;20166;51.738;7.158;2024-03-08T05:59:53;101058.00;;;2.40
33877;BMP180;20166;51.738;7.158;2024-03-08T06:02:39;101066.00;;;2.40
33877;BMP180;20166;51.738;7.158;2024-03-08T06:05:27;101060.00;;;2.30
33877;BMP180;20166;51.738;7.158;2024-03-08T06:08:13;101059.00;;;2.30
33877;BMP180;20166;51.738;7.158;2024-03-08T06:11:00;101056.00;;;2.30
33877;BMP180;20166;51.738;7.158;2024-03-08T06:13:48;101074.00;;;2.40
33877;BMP180;20166;51.738;7.158;2024-03-08T06:16:36;101068.00;;;2.30
33877;BMP180;20166;51.738;7.158;2024-03-08T06:19:23;101068.00;;;2.30
33877;BMP180;20166;51.738;7.158;2024-03-08T06:22:10;101059.00;;;2.30
33877;BMP180;20166;51.738;7.158;2024-03-08T06:24:56;101069.00;;;2.30
33877;BMP180;20166;51.738;7.158;2024-03-08T06:27:43;101075.00;;;2.30
33877;BMP180;20166;51.738;7.158;2024-03-08T06:30:31;101062.00;;;2.30
33877;BMP180;20166;51.738;7.158;2024-03-08T06:33:21;101053.00;;;2.30
33877;BMP180;20166;51.738;7.158;2024-03-08T06:36:08;101064.00;;;2.40
33877;BMP180;20166;51.738;7.158;2024-03-08T06:38:57;101061.00;;;2.30
33877;BMP180;20166;51.738;7.158;2024-03-08T06:41:43;101064.00;;;2.30
33877;BMP180;20166;51.738;7.158;2024-03-08T06:44:30;101060.00;;;2.20
33877;BMP180;20166;51.738;7.158;2024-03-08T06:47:18;101058.00;;;2.40
33877;BMP180;20166;51.738;7.158;2024-03-08T06:50:06;101054.00;;;2.20
33877;BMP180;20166;51.738;7.158;2024-03-08T06:52:53;101057.00;;;2.20
33877;BMP180;20166;51.738;7.158;2024-03-08T06:55:40;101054.00;;;2.30
33877;BMP180;20166;51.738;7.158;2024-03-08T06:58:26;101061.00;;;2.30
33877;BMP180;20166;51.738;7.158;2024-03-08T07:01:13;101051.00;;;2.40
33877;BMP180;20166;51.738;7.158;2024-03-08T07:04:00;101054.00;;;2.40
33877;BMP180;20166;51.738;7.158;2024-03-08T07:06:51;101052.00;;;2.50
33877;BMP180;20166;51.738;7.158;2024-03-08T07:09:38;101049.00;;;2.60
33877;BMP180;20166;51.738;7.158;2024-03-08T07:12:24;101048.00;;;2.70
33877;BMP180;20166;51.738;7.158;2024-03-08T07:15:12;101054.00;;;2.70
33877;BMP180;20166;51.738;7.158;2024-03-08T07:18:00;101055.00;;;2.70
33877;BMP180;20166;51.738;7.158;2024-03-08T07:20:46;101056.00;;;2.80
33877;BMP180;20166;51.738;7.158;2024-03-08T07:23:35;101055.00;;;2.90
33877;BMP180;20166;51.738;7.158;2024-03-08T07:26:48;101052.00;;;2.90
33877;BMP180;20166;51.738;7.158;2024-03-08T07:29:34;101062.00;;;2.90
33877;BMP180;20166;51.738;7.158;2024-03-08T07:32:21;101056.00;;;3.00
33877;BMP180;20166;51.738;7.158;2024-03-08T07:35:08;101058.00;;;3.00
33877;BMP180;20166;51.738;7.158;2024-03-08T07:37:54;101044.00;;;3.00
33877;BMP180;20166;51.738;7.158;2024-03-08T07:40:43;101046.00;;;3.00
33877;BMP180;20166;51.738;7.158;2024-03-08T07:43:30;101040.00;;;3.10
33877;BMP180;20166;51.738;7.158;2024-03-08T07:46:18;101031.00;;;3.20
33877;BMP180;20166;51.738;7.158;2024-03-08T07:49:05;101037.00;;;3.30
33877;BMP180;20166;51.738;7.158;2024-03-08T07:51:52;101040.00;;;3.30
33877;BMP180;20166;51.738;7.158;2024-03-08T07:54:38;101039.00;;;3.40
33877;BMP180;20166;51.738;7.158;2024-03-08T07:57:26;101037.00;;;3.50
33877;BMP180;20166;51.738;7.158;2024-03-08T08:00:14;101040.00;;;3.60
33877;BMP180;20166;51.738;7.158;2024-03-08T08:03:03;101035.00;;;3.70
33877;BMP180;20166;51.738;7.158;2024-03-08T08:05:50;101028.00;;;3.80
33877;BMP180;20166;51.738;7.158;2024-03-08T08:08:37;101028.00;;;3.90
33877;BMP180;20166;51.738;7.158;2024-03-08T08:11:25;101019.00;;;3.90
33877;BMP180;20166;51.738;7.158;2024-03-08T08:14:14;101023.00;;;4.00
33877;BMP180;20166;51.738;7.158;2024-03-08T08:17:00;101016.00;;;4.00
33877;BMP180;20166;51.738;7.158;2024-03-08T08:19:49;101013.00;;;4.00
33877;BMP180;20166;51.738;7.158;2024-03-08T08:22:36;101014.00;;;4.10
33877;BMP180;20166;51.738;7.158;2024-03-08T08:25:23;101015.00;;;4.20
33877;BMP180;20166;51.738;7.158;2024-03-08T08:28:10;101004.00;;;4.20
33877;BMP180;20166;51.738;7.158;2024-03-08T08:30:59;100990.00;;;4.40
33877;BMP180;20166;51.738;7.158;2024-03-08T08:33:45;101001.00;;;4.50
33877;BMP180;20166;51.738;7.158;2024-03-08T08:36:34;100995.00;;;4.50
33877;BMP180;20166;51.738;7.158;2024-03-08T08:39:22;100989.00;;;4.60
33877;BMP180;20166;51.738;7.158;2024-03-08T08:42:11;100982.00;;;4.70
33877;BMP180;20166;51.738;7.158;2024-03-08T08:44:57;100982.00;;;4.80
33877;BMP180;20166;51.738;7.158;2024-03-08T08:47:54;100973.00;;;4.80
33877;BMP180;20166;51.738;7.158;2024-03-08T08:50:41;100978.00;;;4.90
33877;BMP180;20166;51.738;7.158;2024-03-08T08:53:29;100979.00;;;5.00
33877;BMP180;20166;51.738;7.158;2024-03-08T08:56:16;100967.00;;;5.10
33877;BMP180;20166;51.738;7.158;2024-03-08T08:59:04;100967.00;;;5.10
33877;BMP180;20166;51.738;7.158;2024-03-08T09:01:51;100966.00;;;5.30
33877;BMP180;20166;51.738;7.158;2024-03-08T09:04:40;100958.00;;;5.50
33877;BMP180;20166;51.738;7.158;2024-03-08T09:07:26;100950.00;;;5.60
33877;BMP180;20166;51.738;7.158;2024-03-08T09:10:13;100955.00;;;5.70
33877;BMP180;20166;51.738;7.158;2024-03-08T09:13:02;100949.00;;;5.80
33877;BMP180;20166;51.738;7.158;2024-03-08T09:15:53;100951.00;;;5.90
33877;BMP180;20166;51.738;7.158;2024-03-08T09:18:40;100940.00;;;5.90
33877;BMP180;20166;51.738;7.158;2024-03-08T09:21:28;100940.00;;;6.00
33877;BMP180;20166;51.738;7.158;2024-03-08T09:24:17;100944.00;;;6.10
33877;BMP180;20166;51.738;7.158;2024-03-08T09:27:04;100931.00;;;6.20
33877;BMP180;20166;51.738;7.158;2024-03-08T09:29:53;100930.00;;;6.20
33877;BMP180;20166;51.738;7.158;2024-03-08T09:32:40;100932.00;;;6.40
33877;BMP180;20166;51.738;7.158;2024-03-08T09:35:28;100918.00;;;6.50
33877;BMP180;20166;51.738;7.158;2024-03-08T09:38:16;100914.00;;;6.60
33877;BMP180;20166;51.738;7.158;2024-03-08T09:41:03;100903.00;;;6.70
33877;BMP180;20166;51.738;7.158;2024-03-08T09:43:50;100904.00;;;6.70
33877;BMP180;20166;51.738;7.158;2024-03-08T09:46:37;100894.00;;;6.90
33877;BMP180;20166;51.738;7.158;2024-03-08T09:49:24;100891.00;;;7.00
33877;BMP180;20166;51.738;7.158;2024-03-08T09:52:10;100896.00;;;7.10
33877;BMP180;20166;51.738;7.158;2024-03-08T09:54:59;100884.00;;;7.30
33877;BMP180;20166;51.738;7.158;2024-03-08T09:57:46;100886.00;;;7.30
33877;BMP180;20166;51.738;7.158;2024-03-08T10:00:53;100882.00;;;7.40
33877;BMP180;20166;51.738;7.158;2024-03-08T10:03:42;100875.00;;;7.40
33877;BMP180;20166;51.738;7.158;2024-03-08T10:06:29;100866.00;;;7.50
33877;BMP180;20166;51.738;7.158;2024-03-08T10:09:16;100860.00;;;7.60
33877;BMP180;20166;51.738;7.158;2024-03-08T10:12:04;100856.00;;;7.60
33877;BMP180;20166;51.738;7.158;2024-03-08T10:14:54;100857.00;;;7.70
33877;BMP180;20166;51.738;7.158;2024-03-08T10:17:41;100859.00;;;7.80
33877;BMP180;20166;51.738;7.158;2024-03-08T10:20:30;100849.00;;;7.70
33877;BMP180;20166;51.738;7.158;2024-03-08T10:23:18;100849.00;;;7.80
33877;BMP180;20166;51.738;7.158;2024-03-08T10:26:11;100846.00;;;8.00
33877;BMP180;20166;51.738;7.158;2024-03-08T10:29:03;100844.00;;;8.40
33877;BMP180;20166;51.738;7.158;2024-03-08T10:31:50;100838.00;;;8.40
33877;BMP180;20166;51.738;7.158;2024-03-08T10:34:36;100829.00;;;8.50
33877;BMP180;20166;51.738;7.158;2024-03-08T10:37:23;100824.00;;;8.60
33877;BMP180;20166;51.738;7.158;2024-03-08T10:40:15;100821.00;;;8.60
33877;BMP180;20166;51.738;7.158;2024-03-08T10:43:03;100818.00;;;8.70
33877;BMP180;20166;51.738;7.158;2024-03-08T10:46:01;100819.00;;;8.90
33877;BMP180;20166;51.738;7.158;2024-03-08T10:48:55;100828.00;;;9.00
33877;BMP180;20166;51.738;7.158;2024-03-08T10:51:45;100825.00;;;9.00
33877;BMP180;20166;51.738;7.158;2024-03-08T10:54:33;100819.00;;;8.90
33877;BMP180;20166;51.738;7.158;2024-03-08T10:57:22;100816.00;;;8.90
33877;BMP180;20166;51.738;7.158;2024-03-08T11:00:10;100813.00;;;9.10
33877;BMP180;20166;51.738;7.158;2024-03-08T11:03:00;100799.00;;;9.20
33877;BMP180;20166;51.738;7.158;2024-03-08T11:05:48;100795.00;;;9.20
33877;BMP180;20166;51.738;7.158;2024-03-08T11:08:36;100802.00;;;9.30
33877;BMP180;20166;51.738;7.158;2024-03-08T11:11:25;100808.00;;;9.30
33877;BMP180;20166;51.738;7.158;2024-03-08T11:14:43;100799.00;;;9.30
33877;BMP180;20166;51.738;7.158;2024-03-08T11:17:45;100786.00;;;9.40
33877;BMP180;20166;51.738;7.158;2024-03-08T11:20:33;100790.00;;;9.50
33877;BMP180;20166;51.738;7.158;2024-03-08T11:23:23;100781.00;;;9.50
33877;BMP180;20166;51.738;7.158;2024-03-08T11:26:18;100772.00;;;9.50
33877;BMP180;20166;51.738;7.158;2024-03-08T11:29:33;100772.00;;;9.50
33877;BMP180;20166;51.738;7.158;2024-03-08T11:32:20;100769.00;;;9.50
33877;BMP180;20166;51.738;7.158;2024-03-08T11:35:08;100759.00;;;9.40
33877;BMP180;20166;51.738;7.158;2024-03-08T11:38:05;100761.00;;;9.60
33877;BMP180;20166;51.738;7.158;2024-03-08T11:40:53;100754.00;;;9.60
33877;BMP180;20166;51.738;7.158;2024-03-08T11:43:39;100745.00;;;9.60
33877;BMP180;20166;51.738;7.158;2024-03-08T11:46:26;100738.00;;;9.70
33877;BMP180;20166;51.738;7.158;2024-03-08T11:49:14;100746.00;;;9.90
33877;BMP180;20166;51.738;7.158;2024-03-08T11:52:00;100745.00;;;9.80
33877;BMP180;20166;51.738;7.158;2024-03-08T11:54:52;100730.00;;;10.00
33877;BMP180;20166;51.738;7.158;2024-03-08T11:57:39;100729.00;;;10.00
33877;BMP180;20166;51.738;7.158;2024-03-08T12:00:27;100722.00;;;10.20
33877;BMP180;20166;51.738;7.158;2024-03-08T12:03:20;100720.00;;;10.30
33877;BMP180;20166;51.738;7.158;2024-03-08T12:06:07;100718.00;;;10.40
33877;BMP180;20166;51.738;7.158;2024-03-08T12:08:54;100708.00;;;10.40
33877;BMP180;20166;51.738;7.158;2024-03-08T12:11:42;100697.00;;;10.60
33877;BMP180;20166;51.738;7.158;2024-03-08T12:14:32;100698.00;;;10.80
33877;BMP180;20166;51.738;7.158;2024-03-08T12:17:19;100690.00;;;10.70
33877;BMP180;20166;51.738;7.158;2024-03-08T12:20:14;100685.00;;;10.50
33877;BMP180;20166;51.738;7.158;2024-03-08T12:23:00;100688.00;;;10.50
33877;BMP180;20166;51.738;7.158;2024-03-08T12:25:47;100675.00;;;10.50
33877;BMP180;20166;51.738;7.158;2024-03-08T12:28:35;100667.00;;;10.60
33877;BMP180;20166;51.738;7.158;2024-03-08T12:31:22;100660.00;;;10.80
33877;BMP180;20166;51.738;7.158;2024-03-08T12:34:11;100666.00;;;10.90
33877;BMP180;20166;51.738;7.158;2024-03-08T12:36:58;100660.00;;;10.90
33877;BMP180;20166;51.738;7.158;2024-03-08T12:39:45;100644.00;;;10.90
33877;BMP180;20166;51.738;7.158;2024-03-08T12:42:31;100650.00;;;11.00
33877;BMP180;20166;51.738;7.158;2024-03-08T12:45:21;100641.00;;;11.00
33877;BMP180;20166;51.738;7.158;2024-03-08T12:48:12;100635.00;;;10.90
33877;BMP180;20166;51.738;7.158;2024-03-08T12:51:00;100633.00;;;10.90
33877;BMP180;20166;51.738;7.158;2024-03-08T12:53:47;100625.00;;;11.10
33877;BMP180;20166;51.738;7.158;2024-03-08T12:56:34;100630.00;;;11.10
33877;BMP180;20166;51.738;7.158;2024-03-08T12:59:22;100614.00;;;11.20
33877;BMP180;20166;51.738;7.158;2024-03-08T13:02:10;100610.00;;;11.40
33877;BMP180;20166;51.738;7.158;2024-03-08T13:04:57;100611.00;;;11.60
33877;BMP180;20166;51.738;7.158;2024-03-08T13:07:44;100606.00;;;11.60
33877;BMP180;20166;51.738;7.158;2024-03-08T13:10:32;100607.00;;;11.50
33877;BMP180;20166;51.738;7.158;2024-03-08T13:13:18;100592.00;;;11.40
33877;BMP180;20166;51.738;7.158;2024-03-08T13:16:05;100586.00;;;11.40
33877;BMP180;20166;51.738;7.158;2024-03-08T13:18:54;100579.00;;;11.50
33877;BMP180;20166;51.738;7.158;2024-03-08T13:21:42;100588.00;;;11.50
33877;BMP180;20166;51.738;7.158;2024-03-08T13:24:34;100578.00;;;11.60
33877;BMP180;20166;51.738;7.158;2024-03-08T13:27:20;100580.00;;;11.60
33877;BMP180;20166;51.738;7.158;2024-03-08T13:30:11;100567.00;;;11.80
33877;BMP180;20166;51.738;7.158;2024-03-08T13:32:59;100567.00;;;11.80
33877;BMP180;20166;51.738;7.158;2024-03-08T13:35:47;100562.00;;;11.90
33877;BMP180;20166;51.738;7.158;2024-03-08T13:38:35;100564.00;;;12.00
33877;BMP180;20166;51.738;7.158;2024-03-08T13:41:22;100570.00;;;12.10
33877;BMP180;20166;51.738;7.158;2024-03-08T13:44:09;100559.00;;;11.80
33877;BMP180;20166;51.738;7.158;2024-03-08T13:46:56;100536.00;;;12.10
33877;BMP180;20166;51.738;7.158;2024-03-08T13:49:43;100541.00;;;12.00
33877;BMP180;20166;51.738;7.158;2024-03-08T13:52:31;100549.00;;;12.10
33877;BMP180;20166;51.738;7.158;2024-03-08T13:55:18;100537.00;;;11.90
33877;BMP180;20166;51.738;7.158;2024-03-08T13:58:04;100530.00;;;11.80
33877;BMP180;20166;51.738;7.158;2024-03-08T14:00:54;100530.00;;;11.70
33877;BMP180;20166;51.738;7.158;2024-03-08T14:03:41;100527.00;;;11.70
33877;BMP180;20166;51.738;7.158;2024-03-08T14:06:28;100532.00;;;11.70
33877;BMP180;20166;51.738;7.158;2024-03-08T14:09:16;100523.00;;;11.60
33877;BMP180;20166;51.738;7.158;2024-03-08T14:12:04;100525.00;;;11.50
33877;BMP180;20166;51.738;7.158;2024-03-08T14:14:52;100506.00;;;11.70
33877;BMP180;20166;51.738;7.158;2024-03-08T14:17:38;100518.00;;;11.70
33877;BMP180;20166;51.738;7.158;2024-03-08T14:20:25;100511.00;;;11.50
33877;BMP180;20166;51.738;7.158;2024-03-08T14:23:11;100503.00;;;11.60
33877;BMP180;20166;51.738;7.158;2024-03-08T14:25:59;100503.00;;;11.70
33877;BMP180;20166;51.738;7.158;2024-03-08T14:28:45;100500.00;;;11.40
33877;BMP180;20166;51.738;7.158;2024-03-08T14:31:32;100488.00;;;11.30
33877;BMP180;20166;51.738;7.158;2024-03-08T14:34:19;100478.00;;;11.30
33877;BMP180;20166;51.738;7.158;2024-03-08T14:37:05;100478.00;;;11.10
33877;BMP180;20166;51.738;7.158;2024-03-08T14:39:56;100483.00;;;11.00
33877;BMP180;20166;51.738;7.158;2024-03-08T14:42:45;100485.00;;;11.00
33877;BMP180;20166;51.738;7.158;2024-03-08T14:45:31;100476.00;;;10.90
33877;BMP180;20166;51.738;7.158;2024-03-08T14:48:18;100466.00;;;11.00
33877;BMP180;20166;51.738;7.158;2024-03-08T14:51:04;100468.00;;;11.00
33877;BMP180;20166;51.738;7.158;2024-03-08T14:53:55;100464.00;;;10.80
33877;BMP180;20166;51.738;7.158;2024-03-08T14:56:42;100450.00;;;10.80
33877;BMP180;20166;51.738;7.158;2024-03-08T14:59:29;100442.00;;;10.60
33877;BMP180;20166;51.738;7.158;2024-03-08T15:02:16;100444.00;;;10.70
33877;BMP180;20166;51.738;7.158;2024-03-08T15:05:04;100438.00;;;10.80
33877;BMP180;20166;51.738;7.158;2024-03-08T15:07:54;100432.00;;;10.70
33877;BMP180;20166;51.738;7.158;2024-03-08T15:10:41;100435.00;;;10.90
33877;BMP180;20166;51.738;7.158;2024-03-08T15:13:30;100431.00;;;10.80
33877;BMP180;20166;51.738;7.158;2024-03-08T15:16:25;100438.00;;;11.00
33877;BMP180;20166;51.738;7.158;2024-03-08T15:19:11;100421.00;;;10.90
33877;BMP180;20166;51.738;7.158;2024-03-08T15:21:59;100425.00;;;10.80
33877;BMP180;20166;51.738;7.158;2024-03-08T15:24:46;100415.00;;;10.90
33877;BMP180;20166;51.738;7.158;2024-03-08T15:27:32;100411.00;;;10.90
33877;BMP180;20166;51.738;7.158;2024-03-08T15:30:23;100402.00;;;10.90
33877;BMP180;20166;51.738;7.158;2024-03-08T15:33:12;100410.00;;;10.90
33877;BMP180;20166;51.738;7.158;2024-03-08T15:36:00;100403.00;;;10.70
33877;BMP180;20166;51.738;7.158;2024-03-08T15:38:53;100402.00;;;10.60
33877;BMP180;20166;51.738;7.158;2024-03-08T15:41:40;100393.00;;;10.50
33877;BMP180;20166;51.738;7.158;2024-03-08T15:44:29;100399.00;;;10.50
33877;BMP180;20166;51.738;7.158;2024-03-08T15:47:15;100400.00;;;10.40
33877;BMP180;20166;51.738;7.158;2024-03-08T15:50:04;100398.00;;;10.40
33877;BMP180;20166;51.738;7.158;2024-03-08T15:52:56;100393.00;;;10.40
33877;BMP180;20166;51.738;7.158;2024-03-08T15:55:44;100388.00;;;10.40
33877;BMP180;20166;51.738;7.158;2024-03-08T15:58:32;100380.00;;;10.40
33877;BMP180;20166;51.738;7.158;2024-03-08T16:01:21;100367.00;;;10.30
33877;BMP180;20166;51.738;7.158;2024-03-08T16:04:08;100367.00;;;10.30